createdAt,value
2022-10-14T00:01:44.750Z,22.35
2022-10-14T00:04:11.373Z,20.63
2022-10-14T00:06:37.951Z,20.95
2022-10-14T00:09:07.418Z,21.60
2022-10-14T00:11:34.984Z,20.85
2022-10-14T00:14:04.700Z,21.35
2022-10-14T00:16:37.231Z,23.55
2022-10-14T00:19:05.354Z,24.20
2022-10-14T00:21:32.767Z,23.88
2022-10-14T00:23:59.349Z,25.25
2022-10-14T00:26:31.190Z,24.23
2022-10-14T00:28:58.851Z,24.33
2022-10-14T00:31:26.146Z,25.27
2022-10-14T00:33:52.888Z,23.73
2022-10-14T00:36:21.065Z,24.27
2022-10-14T00:38:48.970Z,23.55
2022-10-14T00:41:31.653Z,29.02
2022-10-14T00:43:58.229Z,28.20
2022-10-14T00:46:26.833Z,25.05
2022-10-14T00:51:20.191Z,25.92
2022-10-14T00:53:47.320Z,26.50
2022-10-14T00:56:17.146Z,23.63
2022-10-14T00:58:45.132Z,26.15
2022-10-14T01:01:11.707Z,25.92
2022-10-14T01:03:38.272Z,23.90
2022-10-14T01:06:11.821Z,27.35
2022-10-14T01:08:49.300Z,23.65
2022-10-14T01:11:21.110Z,23.20
2022-10-14T01:14:03.905Z,23.23
2022-10-14T01:16:43.952Z,25.23
2022-10-14T01:19:37.797Z,26.38
2022-10-14T01:22:18.702Z,25.02
2022-10-14T01:25:13.245Z,25.30
2022-10-14T01:28:08.812Z,26.90
2022-10-14T01:30:42.386Z,25.75
2022-10-14T01:33:16.019Z,24.50
2022-10-14T01:36:10.022Z,24.33
2022-10-14T01:38:41.192Z,21.92
2022-10-14T01:41:13.822Z,21.60
2022-10-14T01:43:41.328Z,22.13
2022-10-14T01:46:08.261Z,24.73
2022-10-14T01:48:37.215Z,21.73
2022-10-14T01:51:09.485Z,22.05
2022-10-14T01:53:40.240Z,20.40
2022-10-14T01:56:07.676Z,19.65
2022-10-14T01:58:35.771Z,19.55
2022-10-14T02:01:06.714Z,20.33
2022-10-14T02:03:44.267Z,21.48
2022-10-14T02:06:26.041Z,21.87
2022-10-14T02:09:30.563Z,19.60
2022-10-14T02:12:09.260Z,18.63
2022-10-14T02:15:09.630Z,20.42
2022-10-14T02:17:54.397Z,20.30
2022-10-14T02:20:27.098Z,19.50
2022-10-14T02:22:58.916Z,16.27
2022-10-14T02:25:29.899Z,21.75
2022-10-14T02:27:57.903Z,22.77
2022-10-14T02:30:27.862Z,21.05
2022-10-14T02:32:56.347Z,22.05
2022-10-14T02:35:24.297Z,21.73
2022-10-14T02:37:52.058Z,20.67
2022-10-14T02:40:25.726Z,22.30
2022-10-14T02:42:52.343Z,22.63
2022-10-14T02:45:19.153Z,20.52
2022-10-14T02:47:45.741Z,22.38
2022-10-14T02:50:12.575Z,20.55
2022-10-14T02:52:39.215Z,18.52
2022-10-14T02:55:06.133Z,21.13
2022-10-14T02:57:32.713Z,19.30
2022-10-14T02:59:59.285Z,20.92
2022-10-14T03:02:25.988Z,19.35
2022-10-14T03:04:52.684Z,20.42
2022-10-14T03:07:19.266Z,19.50
2022-10-14T03:09:46.135Z,20.15
2022-10-14T03:12:12.679Z,19.67
2022-10-14T03:14:39.349Z,18.55
2022-10-14T03:17:05.876Z,21.33
2022-10-14T03:19:32.463Z,23.02
2022-10-14T03:21:59.030Z,20.08
2022-10-14T03:24:25.656Z,20.20
2022-10-14T03:26:52.229Z,21.70
2022-10-14T03:29:18.771Z,21.17
2022-10-14T03:31:45.379Z,20.45
2022-10-14T03:34:11.919Z,20.80
2022-10-14T03:36:38.510Z,22.38
2022-10-14T03:39:05.109Z,21.50
2022-10-14T03:41:31.723Z,20.75
2022-10-14T03:43:58.456Z,20.25
2022-10-14T03:46:25.019Z,24.35
2022-10-14T03:48:52.681Z,22.77
2022-10-14T03:51:19.604Z,21.67
2022-10-14T03:53:46.162Z,19.65
2022-10-14T03:56:12.782Z,22.70
2022-10-14T03:58:39.337Z,22.83
2022-10-14T04:01:05.935Z,22.38
2022-10-14T04:03:32.501Z,23.70
2022-10-14T04:05:59.080Z,21.98
2022-10-14T04:08:25.705Z,21.33
2022-10-14T04:10:53.883Z,21.23
2022-10-14T04:13:20.644Z,22.83
2022-10-14T04:15:47.445Z,21.42
2022-10-14T04:18:14.100Z,21.88
2022-10-14T04:20:40.655Z,22.00
2022-10-14T04:23:07.578Z,23.30
2022-10-14T04:25:34.162Z,21.65
2022-10-14T04:28:00.727Z,24.50
2022-10-14T04:30:27.347Z,22.08
2022-10-14T04:32:53.934Z,24.42
2022-10-14T04:35:20.479Z,23.13
2022-10-14T04:37:47.028Z,25.42
2022-10-14T04:40:13.644Z,25.27
2022-10-14T04:42:40.256Z,25.38
2022-10-14T04:45:07.302Z,22.77
2022-10-14T04:47:33.892Z,25.20
2022-10-14T04:50:00.465Z,25.83
2022-10-14T04:52:27.177Z,25.00
2022-10-14T04:54:53.740Z,25.48
2022-10-14T04:57:20.286Z,22.40
2022-10-14T04:59:46.885Z,21.48
2022-10-14T05:02:13.467Z,23.17
2022-10-14T05:04:40.232Z,24.40
2022-10-14T05:07:06.788Z,30.80
2022-10-14T05:09:33.583Z,31.13
2022-10-14T05:12:00.147Z,29.65
2022-10-14T05:14:26.925Z,29.40
2022-10-14T05:16:53.629Z,31.80
2022-10-14T05:19:20.376Z,24.60
2022-10-14T05:21:46.969Z,23.52
2022-10-14T05:24:13.667Z,21.80
2022-10-14T05:26:40.212Z,23.00
2022-10-14T05:29:07.137Z,24.70
2022-10-14T05:31:33.796Z,22.85
2022-10-14T05:34:00.360Z,22.45
2022-10-14T05:36:26.911Z,22.27
2022-10-14T05:38:56.441Z,24.05
2022-10-14T05:41:23.127Z,22.80
2022-10-14T05:43:49.864Z,24.27
2022-10-14T05:46:16.435Z,21.08
2022-10-14T05:48:43.067Z,21.23
2022-10-14T05:51:09.929Z,20.10
2022-10-14T05:53:39.146Z,20.55
2022-10-14T05:56:08.144Z,20.52
2022-10-14T05:58:34.762Z,20.77
2022-10-14T06:01:06.209Z,20.65
2022-10-14T06:03:32.910Z,17.52
2022-10-14T06:05:59.570Z,17.88
2022-10-14T06:08:26.683Z,18.90
2022-10-14T06:10:53.541Z,19.40
2022-10-14T06:13:20.623Z,17.98
2022-10-14T06:15:47.229Z,17.45
2022-10-14T06:18:13.779Z,16.48
2022-10-14T06:20:40.377Z,16.58
2022-10-14T06:23:06.999Z,18.70
2022-10-14T06:25:33.557Z,16.15
2022-10-14T06:28:04.059Z,15.80
2022-10-14T06:30:30.825Z,16.02
2022-10-14T06:32:57.424Z,17.73
2022-10-14T06:35:23.988Z,18.48
2022-10-14T06:37:50.588Z,17.13
2022-10-14T06:40:17.231Z,15.57
2022-10-14T06:42:43.878Z,16.42
2022-10-14T06:45:10.640Z,20.75
2022-10-14T06:47:37.172Z,19.98
2022-10-14T06:50:04.198Z,21.38
2022-10-14T06:52:30.787Z,20.92
2022-10-14T06:54:58.236Z,22.23
2022-10-14T06:57:24.896Z,19.80
2022-10-14T06:59:51.542Z,18.27
2022-10-14T07:02:18.123Z,18.83
2022-10-14T07:04:44.652Z,20.63
2022-10-14T07:07:11.206Z,19.20
2022-10-14T07:09:37.765Z,20.13
2022-10-14T07:12:04.474Z,19.40
2022-10-14T07:14:31.020Z,18.10
2022-10-14T07:16:58.342Z,17.85
2022-10-14T07:19:24.899Z,18.63
2022-10-14T07:21:51.424Z,16.60
2022-10-14T07:24:18.024Z,18.15
2022-10-14T07:26:44.676Z,19.25
2022-10-14T07:29:11.267Z,18.23
2022-10-14T07:31:38.173Z,17.55
2022-10-14T07:34:04.791Z,20.48
2022-10-14T07:36:31.512Z,18.95
2022-10-14T07:38:58.112Z,20.02
2022-10-14T07:41:25.573Z,19.15
2022-10-14T07:43:54.428Z,19.80
2022-10-14T07:46:29.595Z,23.70
2022-10-14T07:48:57.971Z,23.40
2022-10-14T07:53:53.148Z,19.70
2022-10-14T07:56:20.416Z,20.55
2022-10-14T07:58:47.097Z,21.42
2022-10-14T08:01:15.617Z,20.23
2022-10-14T08:06:13.200Z,20.88
2022-10-14T08:08:41.065Z,21.52
2022-10-14T08:11:08.963Z,21.02
2022-10-14T08:13:35.904Z,21.48
2022-10-14T08:16:02.993Z,20.60
2022-10-14T08:18:29.770Z,20.33
2022-10-14T08:20:56.380Z,19.27
2022-10-14T08:23:22.968Z,20.58
2022-10-14T08:25:50.056Z,17.05
2022-10-14T08:28:16.801Z,22.08
2022-10-14T08:30:43.382Z,20.88
2022-10-14T08:33:09.999Z,18.23
2022-10-14T08:35:36.551Z,20.27
2022-10-14T08:38:03.195Z,19.30
2022-10-14T08:40:43.046Z,17.27
2022-10-14T08:43:33.610Z,18.70
2022-10-14T08:46:35.609Z,17.25
2022-10-14T08:49:24.499Z,17.40
2022-10-14T08:52:00.659Z,18.20
2022-10-14T08:54:38.380Z,17.90
2022-10-14T08:57:05.765Z,17.23
2022-10-14T08:59:38.113Z,15.63
2022-10-14T09:02:24.702Z,16.88
2022-10-14T09:04:51.391Z,16.05
2022-10-14T09:07:19.676Z,14.52
2022-10-14T09:09:58.840Z,14.77
2022-10-14T09:12:28.436Z,13.00
2022-10-14T09:15:33.941Z,11.45
2022-10-14T09:18:15.828Z,10.95
2022-10-14T09:20:43.287Z,10.40
2022-10-14T09:23:22.787Z,10.43
2022-10-14T09:25:57.915Z,11.77
2022-10-14T09:28:36.903Z,9.35
2022-10-14T09:31:04.608Z,10.95
2022-10-14T09:33:31.314Z,10.53
2022-10-14T09:38:26.536Z,9.07
2022-10-14T09:40:56.916Z,8.15
2022-10-14T09:43:25.071Z,7.68
2022-10-14T09:46:02.318Z,8.82
2022-10-14T09:48:28.804Z,7.38
2022-10-14T09:50:56.715Z,6.55
2022-10-14T09:53:47.133Z,6.40
2022-10-14T09:56:13.841Z,7.35
2022-10-14T09:58:51.383Z,5.70
2022-10-14T10:01:23.546Z,5.63
2022-10-14T10:03:51.951Z,5.78
2022-10-14T10:08:53.050Z,5.85
2022-10-14T10:11:39.483Z,5.72
2022-10-14T10:14:33.158Z,5.15
2022-10-14T10:17:09.673Z,5.72
2022-10-14T10:19:39.040Z,5.35
2022-10-14T10:22:26.681Z,5.07
2022-10-14T10:25:03.467Z,4.70
2022-10-14T10:27:36.111Z,4.63
2022-10-14T10:30:30.345Z,4.90
2022-10-14T10:33:17.106Z,4.90
2022-10-14T10:39:08.280Z,4.20
2022-10-14T10:41:37.868Z,4.22
2022-10-14T10:44:35.094Z,4.25
2022-10-14T10:47:16.417Z,3.40
2022-10-14T10:50:18.729Z,3.60
2022-10-14T10:53:08.103Z,3.40
2022-10-14T10:55:59.647Z,3.58
2022-10-14T10:58:35.587Z,2.80
2022-10-14T11:01:21.429Z,4.00
2022-10-14T11:04:03.350Z,3.30
2022-10-14T11:07:14.706Z,3.55
2022-10-14T11:10:12.109Z,3.33
2022-10-14T11:12:38.635Z,3.10
2022-10-14T11:18:01.253Z,3.25
2022-10-14T11:20:29.690Z,2.75
2022-10-14T11:25:40.258Z,2.63
2022-10-14T11:28:42.650Z,2.92
2022-10-14T11:31:28.719Z,3.03
2022-10-14T11:34:06.051Z,3.10
2022-10-14T11:36:43.104Z,2.92
2022-10-14T11:39:19.255Z,3.00
2022-10-14T11:41:55.145Z,2.75
2022-10-14T11:44:24.803Z,3.08
2022-10-14T11:46:56.538Z,2.75
2022-10-14T11:49:30.767Z,2.20
2022-10-14T11:52:04.282Z,2.42
2022-10-14T11:54:40.417Z,2.47
2022-10-14T11:57:18.713Z,2.42
2022-10-14T12:00:07.680Z,2.53
2022-10-14T12:02:56.119Z,2.53
2022-10-14T12:05:28.503Z,2.22
2022-10-14T12:08:04.151Z,2.88
2022-10-14T12:10:35.507Z,2.85
2022-10-14T12:13:07.809Z,2.33
2022-10-14T12:15:37.333Z,2.78
2022-10-14T12:18:05.427Z,2.58
2022-10-14T12:20:41.240Z,1.65
2022-10-14T12:23:12.840Z,2.15
2022-10-14T12:25:49.234Z,2.10
2022-10-14T12:28:17.296Z,2.22
2022-10-14T12:30:43.937Z,1.88
2022-10-14T12:33:12.653Z,2.60
2022-10-14T12:35:45.457Z,2.10
2022-10-14T12:38:12.733Z,1.63
2022-10-14T12:40:39.949Z,1.67
2022-10-14T12:43:27.260Z,1.80
2022-10-14T12:46:04.053Z,1.58
2022-10-14T12:48:33.701Z,1.45
2022-10-14T12:51:13.255Z,1.50
2022-10-14T12:53:51.771Z,1.88
2022-10-14T12:59:04.581Z,1.10
2022-10-14T13:01:35.328Z,1.17
2022-10-14T13:04:07.310Z,1.30
2022-10-14T13:06:36.033Z,1.30
2022-10-14T13:12:02.440Z,1.40
2022-10-14T13:14:35.525Z,1.30
2022-10-14T13:17:03.400Z,1.15
2022-10-14T13:19:32.940Z,1.40
2022-10-14T13:22:28.502Z,1.50
2022-10-14T13:25:18.927Z,1.08
2022-10-14T13:28:18.669Z,1.03
2022-10-14T13:31:05.530Z,1.00
2022-10-14T13:33:55.317Z,0.80
2022-10-14T13:36:37.455Z,0.80
2022-10-14T13:39:05.109Z,0.80
2022-10-14T13:41:34.605Z,0.80
2022-10-14T13:44:01.659Z,0.80
2022-10-14T13:46:37.203Z,0.85
2022-10-14T13:49:05.899Z,0.88
2022-10-14T13:51:46.417Z,1.00
2022-10-14T13:54:23.490Z,0.80
2022-10-14T13:57:31.529Z,0.70
2022-10-14T14:00:38.091Z,0.90
2022-10-14T14:02:35.088Z,0.82
2022-10-14T14:05:01.959Z,0.90
2022-10-14T14:08:14.635Z,1.10
2022-10-14T14:10:25.687Z,0.90
2022-10-14T14:12:52.850Z,0.70
2022-10-14T14:15:27.548Z,0.88
2022-10-14T14:17:54.556Z,0.82
2022-10-14T14:20:28.177Z,0.98
2022-10-14T14:22:58.049Z,1.00
2022-10-14T14:25:34.594Z,1.00
2022-10-14T14:28:03.352Z,0.90
2022-10-14T14:30:30.889Z,0.95
2022-10-14T14:33:18.683Z,1.17
2022-10-14T14:35:57.111Z,0.75
2022-10-14T14:41:24.659Z,1.20
2022-10-14T14:44:07.636Z,0.90
2022-10-14T14:46:40.400Z,0.82
2022-10-14T14:49:07.956Z,0.93
2022-10-14T14:51:39.385Z,0.85
2022-10-14T14:54:06.464Z,0.88
2022-10-14T14:56:38.473Z,0.90
2022-10-14T14:59:08.953Z,0.93
2022-10-14T15:01:35.491Z,0.70
2022-10-14T15:04:12.313Z,1.00
2022-10-14T15:07:01.447Z,0.75
2022-10-14T15:09:37.222Z,0.90
2022-10-14T15:12:07.151Z,0.80
2022-10-14T15:14:39.390Z,0.90
2022-10-14T15:17:06.520Z,1.00
2022-10-14T15:19:38.115Z,1.00
2022-10-14T15:22:17.160Z,0.90
2022-10-14T15:25:03.973Z,1.00
2022-10-14T15:27:35.384Z,0.88
2022-10-14T15:30:27.038Z,0.80
2022-10-14T15:32:58.022Z,1.20
2022-10-14T15:35:25.247Z,1.50
2022-10-14T15:37:52.137Z,1.17
2022-10-14T15:40:21.441Z,1.20
2022-10-14T15:42:48.808Z,1.20
2022-10-14T15:45:16.083Z,1.23
2022-10-14T15:47:43.172Z,1.27
2022-10-14T15:50:17.087Z,1.40
2022-10-14T15:52:45.436Z,1.40
2022-10-14T15:55:22.813Z,1.70
2022-10-14T15:57:50.437Z,2.05
2022-10-14T16:00:19.083Z,1.53
2022-10-14T16:05:21.078Z,1.80
2022-10-14T16:07:48.518Z,1.70
2022-10-14T16:10:20.311Z,1.88
2022-10-14T16:12:47.011Z,1.60
2022-10-14T16:15:35.904Z,1.80
2022-10-14T16:18:02.481Z,1.83
2022-10-14T16:20:30.769Z,1.90
2022-10-14T16:22:58.564Z,2.15
2022-10-14T16:25:39.880Z,2.28
2022-10-14T16:28:10.067Z,2.08
2022-10-14T16:30:39.634Z,1.70
2022-10-14T16:33:06.661Z,2.60
2022-10-14T16:35:33.644Z,2.53
2022-10-14T16:38:00.201Z,2.55
2022-10-14T16:40:26.773Z,2.38
2022-10-14T16:42:53.570Z,2.63
2022-10-14T16:45:20.149Z,2.80
2022-10-14T16:47:46.761Z,2.67
2022-10-14T16:50:13.475Z,2.28
2022-10-14T16:53:00.928Z,3.03
2022-10-14T16:55:30.938Z,2.78
2022-10-14T16:57:57.592Z,2.50
2022-10-14T17:00:24.192Z,3.05
2022-10-14T17:02:50.805Z,2.85
2022-10-14T17:05:17.588Z,3.45
2022-10-14T17:07:44.135Z,3.17
2022-10-14T17:10:11.101Z,3.75
2022-10-14T17:12:37.999Z,3.40
2022-10-14T17:15:05.757Z,3.70
2022-10-14T17:17:32.792Z,3.40
2022-10-14T17:19:59.414Z,4.03
2022-10-14T17:22:26.131Z,3.58
2022-10-14T17:24:52.703Z,4.20
2022-10-14T17:27:24.216Z,4.50
2022-10-14T17:29:50.987Z,4.13
2022-10-14T17:32:18.223Z,5.07
2022-10-14T17:34:45.093Z,4.78
2022-10-14T17:37:11.734Z,5.00
2022-10-14T17:39:38.537Z,4.80
2022-10-14T17:42:05.150Z,4.60
2022-10-14T17:44:32.767Z,5.13
2022-10-14T17:47:00.685Z,4.93
2022-10-14T17:49:27.366Z,4.93
2022-10-14T17:51:53.954Z,5.80
2022-10-14T17:54:20.560Z,5.68
2022-10-14T17:56:47.117Z,5.55
2022-10-14T17:59:14.314Z,5.95
2022-10-14T18:02:01.598Z,5.97
2022-10-14T18:04:27.811Z,5.82
2022-10-14T18:06:54.463Z,5.68
2022-10-14T18:09:21.267Z,5.70
2022-10-14T18:14:40.698Z,5.55
2022-10-14T18:17:08.059Z,5.45
2022-10-14T18:19:35.096Z,5.72
2022-10-14T18:22:02.714Z,5.88
2022-10-14T18:24:29.377Z,5.95
2022-10-14T18:26:55.921Z,6.10
2022-10-14T18:29:23.688Z,6.15
2022-10-14T18:34:24.880Z,6.05
2022-10-14T18:36:51.465Z,5.72
2022-10-14T18:39:18.051Z,5.80
2022-10-14T18:41:44.899Z,5.30
2022-10-14T18:44:11.908Z,5.47
2022-10-14T18:46:39.437Z,6.20
2022-10-14T18:49:08.306Z,6.10
2022-10-14T18:51:37.417Z,5.63
2022-10-14T18:54:10.215Z,5.88
2022-10-14T18:56:40.076Z,6.55
2022-10-14T18:59:12.810Z,5.78
2022-10-14T19:01:40.268Z,5.50
2022-10-14T19:04:08.686Z,5.50
2022-10-14T19:06:35.669Z,6.47
2022-10-14T19:09:02.902Z,6.38
2022-10-14T19:11:30.836Z,6.15
2022-10-14T19:13:59.507Z,5.25
2022-10-14T19:16:32.134Z,5.85
2022-10-14T19:19:01.103Z,5.45
2022-10-14T19:21:30.444Z,6.72
2022-10-14T19:23:58.170Z,6.40
2022-10-14T19:26:27.348Z,5.87
2022-10-14T19:28:54.144Z,5.68
2022-10-14T19:31:22.801Z,5.85
2022-10-14T19:36:17.457Z,5.53
2022-10-14T19:38:51.158Z,6.68
2022-10-14T19:41:18.502Z,6.25
2022-10-14T19:43:45.112Z,6.35
2022-10-14T19:46:12.477Z,5.50
2022-10-14T19:48:39.413Z,6.57
2022-10-14T19:51:09.333Z,6.30
2022-10-14T19:53:37.507Z,7.70
2022-10-14T19:56:08.387Z,6.93
2022-10-14T19:58:36.769Z,8.45
2022-10-14T20:01:09.585Z,7.82
2022-10-14T20:03:36.527Z,8.13
2022-10-14T20:06:03.790Z,8.98
2022-10-14T20:08:30.383Z,10.27
2022-10-14T20:10:56.972Z,8.90
2022-10-14T20:13:23.524Z,8.90
2022-10-14T20:15:57.575Z,9.05
2022-10-14T20:18:26.296Z,10.27
2022-10-14T20:20:53.064Z,10.48
2022-10-14T20:23:20.299Z,9.82
2022-10-14T20:25:46.852Z,10.80
2022-10-14T20:28:19.418Z,8.77
2022-10-14T20:30:47.336Z,8.70
2022-10-14T20:33:14.159Z,8.88
2022-10-14T20:35:40.813Z,9.32
2022-10-14T20:38:07.417Z,9.82
2022-10-14T20:40:35.582Z,8.70
2022-10-14T20:43:03.353Z,9.50
2022-10-14T20:45:30.158Z,10.30
2022-10-14T20:47:56.758Z,9.40
2022-10-14T20:50:23.326Z,9.80
2022-10-14T20:52:49.905Z,10.20
2022-10-14T20:55:16.568Z,10.00
2022-10-14T20:57:43.155Z,10.45
2022-10-14T21:00:10.340Z,10.85
2022-10-14T21:02:36.961Z,11.77
2022-10-14T21:05:03.830Z,12.25
2022-10-14T21:07:30.369Z,11.18
2022-10-14T21:09:56.955Z,12.85
2022-10-14T21:12:23.792Z,13.27
2022-10-14T21:14:50.581Z,13.45
2022-10-14T21:17:17.152Z,15.80
2022-10-14T21:19:43.747Z,14.43
2022-10-14T21:22:10.287Z,14.95
2022-10-14T21:24:40.718Z,15.15
2022-10-14T21:27:07.671Z,15.90
2022-10-14T21:29:34.352Z,14.60
2022-10-14T21:32:02.609Z,15.23
2022-10-14T21:34:30.214Z,15.38
2022-10-14T21:36:57.100Z,14.25
2022-10-14T21:39:26.548Z,15.30
2022-10-14T21:41:53.147Z,14.50
2022-10-14T21:44:20.853Z,14.20
2022-10-14T21:46:47.920Z,15.37
2022-10-14T21:49:15.148Z,14.32
2022-10-14T21:51:42.128Z,16.45
2022-10-14T21:54:10.958Z,15.05
2022-10-14T21:56:37.528Z,16.05
2022-10-14T21:59:04.416Z,15.07
2022-10-14T22:01:31.114Z,15.55
2022-10-14T22:04:00.439Z,15.02
2022-10-14T22:06:28.040Z,14.88
2022-10-14T22:08:56.911Z,15.27
2022-10-14T22:11:26.651Z,16.17
2022-10-14T22:13:54.436Z,15.18
2022-10-14T22:16:21.107Z,16.25
2022-10-14T22:18:50.641Z,17.00
2022-10-14T22:21:19.440Z,15.82
2022-10-14T22:23:47.552Z,14.63
2022-10-14T22:26:17.163Z,14.10
2022-10-14T22:28:43.989Z,14.65
2022-10-14T22:31:21.241Z,14.20
2022-10-14T22:33:48.811Z,15.88
2022-10-14T22:36:19.529Z,14.35
2022-10-14T22:38:50.073Z,14.20
2022-10-14T22:41:17.467Z,15.73
2022-10-14T22:43:48.810Z,16.83
2022-10-14T22:46:16.799Z,14.55
2022-10-14T22:48:43.323Z,15.02
2022-10-14T22:51:13.283Z,14.75
2022-10-14T22:53:41.076Z,13.02
2022-10-14T22:56:09.826Z,12.50
2022-10-14T22:58:36.696Z,12.45
2022-10-14T23:01:07.908Z,12.23
2022-10-14T23:03:35.179Z,13.02
2022-10-14T23:06:03.170Z,12.80
2022-10-14T23:08:30.687Z,13.27
2022-10-14T23:10:58.694Z,14.32
2022-10-14T23:13:26.069Z,12.75
2022-10-14T23:15:57.224Z,12.35
2022-10-14T23:18:24.331Z,12.32
2022-10-14T23:20:51.196Z,13.27
2022-10-14T23:23:17.862Z,11.45
2022-10-14T23:25:44.450Z,12.77
2022-10-14T23:28:11.024Z,12.23
2022-10-14T23:30:37.559Z,11.88
2022-10-14T23:33:05.039Z,13.57
2022-10-14T23:35:31.933Z,12.63
2022-10-14T23:37:58.527Z,12.80
2022-10-14T23:40:25.083Z,14.90
2022-10-14T23:42:51.609Z,14.65
2022-10-14T23:45:18.188Z,14.00
2022-10-14T23:47:44.724Z,13.43
2022-10-14T23:50:11.293Z,12.48
2022-10-14T23:52:37.875Z,13.02
2022-10-14T23:55:04.753Z,12.60
2022-10-14T23:57:31.344Z,12.15
2022-10-14T23:59:57.935Z,14.13
